sensor_id;sensor_type;location;lat;lon;timestamp;P1;durP1;ratioP1;P2;durP2;ratioP2
6834;SDS011;3455;42.150;24.734;2023-01-28T00:00:33;2.47;;;1.90;;
6834;SDS011;3455;42.150;24.734;2023-01-28T00:03:01;1.97;;;1.87;;
6834;SDS011;3455;42.150;24.734;2023-01-28T00:05:28;1.97;;;1.87;;
6834;SDS011;3455;42.150;24.734;2023-01-28T00:07:55;2.30;;;2.20;;
6834;SDS011;3455;42.150;24.734;2023-01-28T00:10:22;2.40;;;2.20;;
6834;SDS011;3455;42.150;24.734;2023-01-28T00:12:48;14.60;;;2.50;;
6834;SDS011;3455;42.150;24.734;2023-01-28T00:15:15;2.20;;;2.10;;
6834;SDS011;3455;42.150;24.734;2023-01-28T00:17:42;2.93;;;2.50;;
6834;SDS011;3455;42.150;24.734;2023-01-28T00:20:11;2.60;;;1.97;;
6834;SDS011;3455;42.150;24.734;2023-01-28T00:22:38;2.53;;;2.40;;
6834;SDS011;3455;42.150;24.734;2023-01-28T00:25:05;2.83;;;2.63;;
6834;SDS011;3455;42.150;24.734;2023-01-28T00:27:31;2.37;;;2.27;;
6834;SDS011;3455;42.150;24.734;2023-01-28T00:29:58;2.83;;;2.63;;
6834;SDS011;3455;42.150;24.734;2023-01-28T00:32:25;2.50;;;2.23;;
6834;SDS011;3455;42.150;24.734;2023-01-28T00:34:52;2.33;;;2.23;;
6834;SDS011;3455;42.150;24.734;2023-01-28T00:37:20;2.27;;;2.17;;
6834;SDS011;3455;42.150;24.734;2023-01-28T00:39:47;2.53;;;2.43;;
6834;SDS011;3455;42.150;24.734;2023-01-28T00:42:14;2.83;;;2.63;;
6834;SDS011;3455;42.150;24.734;2023-01-28T00:44:41;2.80;;;2.60;;
6834;SDS011;3455;42.150;24.734;2023-01-28T00:47:08;2.23;;;2.13;;
6834;SDS011;3455;42.150;24.734;2023-01-28T00:49:36;2.63;;;2.43;;
6834;SDS011;3455;42.150;24.734;2023-01-28T00:52:03;2.33;;;1.93;;
6834;SDS011;3455;42.150;24.734;2023-01-28T00:54:31;2.17;;;2.07;;
6834;SDS011;3455;42.150;24.734;2023-01-28T00:56:58;2.47;;;2.37;;
6834;SDS011;3455;42.150;24.734;2023-01-28T00:59:25;3.30;;;2.07;;
6834;SDS011;3455;42.150;24.734;2023-01-28T01:01:52;2.23;;;2.13;;
6834;SDS011;3455;42.150;24.734;2023-01-28T01:04:18;2.47;;;2.27;;
6834;SDS011;3455;42.150;24.734;2023-01-28T01:06:50;2.77;;;1.90;;
6834;SDS011;3455;42.150;24.734;2023-01-28T01:09:17;2.60;;;2.40;;
6834;SDS011;3455;42.150;24.734;2023-01-28T01:11:45;2.23;;;2.13;;
6834;SDS011;3455;42.150;24.734;2023-01-28T01:14:12;2.50;;;2.40;;
6834;SDS011;3455;42.150;24.734;2023-01-28T01:16:39;2.20;;;2.10;;
6834;SDS011;3455;42.150;24.734;2023-01-28T01:19:05;2.17;;;2.07;;
6834;SDS011;3455;42.150;24.734;2023-01-28T01:21:33;2.33;;;2.13;;
6834;SDS011;3455;42.150;24.734;2023-01-28T01:24:00;2.67;;;2.50;;
6834;SDS011;3455;42.150;24.734;2023-01-28T01:26:27;2.60;;;2.40;;
6834;SDS011;3455;42.150;24.734;2023-01-28T01:28:55;2.20;;;2.10;;
6834;SDS011;3455;42.150;24.734;2023-01-28T01:31:22;2.47;;;2.37;;
6834;SDS011;3455;42.150;24.734;2023-01-28T01:33:49;2.20;;;2.10;;
6834;SDS011;3455;42.150;24.734;2023-01-28T01:36:17;2.47;;;2.27;;
6834;SDS011;3455;42.150;24.734;2023-01-28T01:38:46;2.00;;;1.90;;
6834;SDS011;3455;42.150;24.734;2023-01-28T01:41:19;2.43;;;2.23;;
6834;SDS011;3455;42.150;24.734;2023-01-28T01:43:50;7.03;;;2.00;;
6834;SDS011;3455;42.150;24.734;2023-01-28T01:46:20;2.67;;;2.57;;
6834;SDS011;3455;42.150;24.734;2023-01-28T01:48:51;2.30;;;2.20;;
6834;SDS011;3455;42.150;24.734;2023-01-28T01:51:23;2.60;;;2.50;;
6834;SDS011;3455;42.150;24.734;2023-01-28T01:53:55;2.23;;;2.13;;
6834;SDS011;3455;42.150;24.734;2023-01-28T01:56:25;2.53;;;2.33;;
6834;SDS011;3455;42.150;24.734;2023-01-28T01:58:54;2.60;;;2.50;;
6834;SDS011;3455;42.150;24.734;2023-01-28T02:01:25;2.60;;;2.40;;
6834;SDS011;3455;42.150;24.734;2023-01-28T02:03:56;2.20;;;2.10;;
6834;SDS011;3455;42.150;24.734;2023-01-28T02:06:29;2.20;;;2.10;;
6834;SDS011;3455;42.150;24.734;2023-01-28T02:08:57;2.50;;;2.40;;
6834;SDS011;3455;42.150;24.734;2023-01-28T02:11:24;2.17;;;2.07;;
6834;SDS011;3455;42.150;24.734;2023-01-28T02:13:55;2.57;;;2.37;;
6834;SDS011;3455;42.150;24.734;2023-01-28T02:16:27;3.40;;;2.40;;
6834;SDS011;3455;42.150;24.734;2023-01-28T02:18:56;2.37;;;2.27;;
6834;SDS011;3455;42.150;24.734;2023-01-28T02:21:27;2.07;;;1.97;;
6834;SDS011;3455;42.150;24.734;2023-01-28T02:24:16;2.40;;;2.30;;
6834;SDS011;3455;42.150;24.734;2023-01-28T02:27:01;2.57;;;2.40;;
6834;SDS011;3455;42.150;24.734;2023-01-28T02:29:42;2.40;;;2.30;;
6834;SDS011;3455;42.150;24.734;2023-01-28T02:32:13;2.07;;;1.97;;
6834;SDS011;3455;42.150;24.734;2023-01-28T02:34:45;2.20;;;2.10;;
6834;SDS011;3455;42.150;24.734;2023-01-28T02:37:17;1.77;;;1.67;;
6834;SDS011;3455;42.150;24.734;2023-01-28T02:39:48;2.10;;;2.00;;
6834;SDS011;3455;42.150;24.734;2023-01-28T02:42:18;2.90;;;2.10;;
6834;SDS011;3455;42.150;24.734;2023-01-28T02:44:50;3.03;;;2.77;;
6834;SDS011;3455;42.150;24.734;2023-01-28T02:47:16;1.80;;;1.70;;
6834;SDS011;3455;42.150;24.734;2023-01-28T02:50:02;1.70;;;1.60;;
6834;SDS011;3455;42.150;24.734;2023-01-28T02:52:40;2.00;;;1.90;;
6834;SDS011;3455;42.150;24.734;2023-01-28T02:55:38;2.07;;;1.97;;
6834;SDS011;3455;42.150;24.734;2023-01-28T02:58:10;2.07;;;1.97;;
6834;SDS011;3455;42.150;24.734;2023-01-28T03:00:48;1.73;;;1.63;;
6834;SDS011;3455;42.150;24.734;2023-01-28T03:03:21;1.60;;;1.50;;
6834;SDS011;3455;42.150;24.734;2023-01-28T03:05:54;1.53;;;1.50;;
6834;SDS011;3455;42.150;24.734;2023-01-28T03:08:34;2.03;;;1.80;;
6834;SDS011;3455;42.150;24.734;2023-01-28T03:11:22;1.80;;;1.70;;
6834;SDS011;3455;42.150;24.734;2023-01-28T03:14:07;2.10;;;2.00;;
6834;SDS011;3455;42.150;24.734;2023-01-28T03:16:53;2.47;;;1.77;;
6834;SDS011;3455;42.150;24.734;2023-01-28T03:19:42;1.80;;;1.70;;
6834;SDS011;3455;42.150;24.734;2023-01-28T03:22:26;1.80;;;1.70;;
6834;SDS011;3455;42.150;24.734;2023-01-28T03:25:15;2.20;;;2.10;;
6834;SDS011;3455;42.150;24.734;2023-01-28T03:28:02;1.73;;;1.63;;
6834;SDS011;3455;42.150;24.734;2023-01-28T03:30:52;1.77;;;1.67;;
6834;SDS011;3455;42.150;24.734;2023-01-28T03:33:50;1.47;;;1.47;;
6834;SDS011;3455;42.150;24.734;2023-01-28T03:36:36;1.67;;;1.57;;
6834;SDS011;3455;42.150;24.734;2023-01-28T03:39:15;1.90;;;1.80;;
6834;SDS011;3455;42.150;24.734;2023-01-28T03:41:54;1.77;;;1.60;;
6834;SDS011;3455;42.150;24.734;2023-01-28T03:44:22;1.60;;;1.53;;
6834;SDS011;3455;42.150;24.734;2023-01-28T03:47:07;1.93;;;1.53;;
6834;SDS011;3455;42.150;24.734;2023-01-28T03:49:36;1.67;;;1.57;;
6834;SDS011;3455;42.150;24.734;2023-01-28T03:52:05;1.70;;;1.60;;
6834;SDS011;3455;42.150;24.734;2023-01-28T03:54:31;1.40;;;1.30;;
6834;SDS011;3455;42.150;24.734;2023-01-28T03:56:58;1.63;;;1.53;;
6834;SDS011;3455;42.150;24.734;2023-01-28T03:59:25;1.37;;;1.27;;
6834;SDS011;3455;42.150;24.734;2023-01-28T04:01:52;1.53;;;1.43;;
6834;SDS011;3455;42.150;24.734;2023-01-28T04:04:19;1.20;;;1.20;;
6834;SDS011;3455;42.150;24.734;2023-01-28T04:06:51;1.67;;;1.57;;
6834;SDS011;3455;42.150;24.734;2023-01-28T04:09:18;1.53;;;1.43;;
6834;SDS011;3455;42.150;24.734;2023-01-28T04:11:46;1.80;;;1.70;;
6834;SDS011;3455;42.150;24.734;2023-01-28T04:14:12;3.53;;;1.57;;
6834;SDS011;3455;42.150;24.734;2023-01-28T04:16:40;1.63;;;1.53;;
6834;SDS011;3455;42.150;24.734;2023-01-28T04:19:07;1.47;;;1.37;;
6834;SDS011;3455;42.150;24.734;2023-01-28T04:21:34;2.47;;;1.60;;
6834;SDS011;3455;42.150;24.734;2023-01-28T04:24:03;1.60;;;1.50;;
6834;SDS011;3455;42.150;24.734;2023-01-28T04:26:30;1.57;;;1.47;;
6834;SDS011;3455;42.150;24.734;2023-01-28T04:28:57;1.90;;;1.80;;
6834;SDS011;3455;42.150;24.734;2023-01-28T04:31:23;1.70;;;1.60;;
6834;SDS011;3455;42.150;24.734;2023-01-28T04:33:50;1.37;;;1.37;;
6834;SDS011;3455;42.150;24.734;2023-01-28T04:36:17;1.90;;;1.80;;
6834;SDS011;3455;42.150;24.734;2023-01-28T04:38:43;2.67;;;2.03;;
6834;SDS011;3455;42.150;24.734;2023-01-28T04:41:12;1.63;;;1.53;;
6834;SDS011;3455;42.150;24.734;2023-01-28T04:43:38;1.70;;;1.60;;
6834;SDS011;3455;42.150;24.734;2023-01-28T04:46:05;1.53;;;1.43;;
6834;SDS011;3455;42.150;24.734;2023-01-28T04:48:32;1.67;;;1.57;;
6834;SDS011;3455;42.150;24.734;2023-01-28T04:51:00;1.70;;;1.60;;
6834;SDS011;3455;42.150;24.734;2023-01-28T04:53:27;1.40;;;1.30;;
6834;SDS011;3455;42.150;24.734;2023-01-28T04:55:54;1.93;;;1.77;;
6834;SDS011;3455;42.150;24.734;2023-01-28T04:58:23;2.10;;;2.00;;
6834;SDS011;3455;42.150;24.734;2023-01-28T05:00:52;1.60;;;1.50;;
6834;SDS011;3455;42.150;24.734;2023-01-28T05:03:20;1.70;;;1.60;;
6834;SDS011;3455;42.150;24.734;2023-01-28T05:05:47;2.90;;;1.70;;
6834;SDS011;3455;42.150;24.734;2023-01-28T05:08:13;2.03;;;1.90;;
6834;SDS011;3455;42.150;24.734;2023-01-28T05:10:40;2.10;;;2.00;;
6834;SDS011;3455;42.150;24.734;2023-01-28T05:13:07;1.60;;;1.50;;
6834;SDS011;3455;42.150;24.734;2023-01-28T05:15:35;1.80;;;1.70;;
6834;SDS011;3455;42.150;24.734;2023-01-28T05:18:02;2.40;;;1.97;;
6834;SDS011;3455;42.150;24.734;2023-01-28T05:20:29;2.83;;;1.80;;
6834;SDS011;3455;42.150;24.734;2023-01-28T05:22:56;2.77;;;1.97;;
6834;SDS011;3455;42.150;24.734;2023-01-28T05:25:22;1.90;;;1.80;;
6834;SDS011;3455;42.150;24.734;2023-01-28T05:27:49;2.43;;;2.33;;
6834;SDS011;3455;42.150;24.734;2023-01-28T05:30:16;1.93;;;1.83;;
6834;SDS011;3455;42.150;24.734;2023-01-28T05:32:45;2.73;;;2.43;;
6834;SDS011;3455;42.150;24.734;2023-01-28T05:35:11;4.23;;;2.43;;
6834;SDS011;3455;42.150;24.734;2023-01-28T05:37:38;2.00;;;1.90;;
6834;SDS011;3455;42.150;24.734;2023-01-28T05:40:05;2.10;;;2.00;;
6834;SDS011;3455;42.150;24.734;2023-01-28T05:42:33;1.60;;;1.50;;
6834;SDS011;3455;42.150;24.734;2023-01-28T05:45:00;2.50;;;2.30;;
6834;SDS011;3455;42.150;24.734;2023-01-28T05:47:26;2.07;;;1.97;;
6834;SDS011;3455;42.150;24.734;2023-01-28T05:49:54;2.23;;;2.13;;
6834;SDS011;3455;42.150;24.734;2023-01-28T05:52:21;3.33;;;3.00;;
6834;SDS011;3455;42.150;24.734;2023-01-28T05:54:48;2.33;;;2.13;;
6834;SDS011;3455;42.150;24.734;2023-01-28T05:57:14;2.90;;;2.70;;
6834;SDS011;3455;42.150;24.734;2023-01-28T05:59:41;2.63;;;2.43;;
6834;SDS011;3455;42.150;24.734;2023-01-28T06:02:08;3.63;;;2.50;;
6834;SDS011;3455;42.150;24.734;2023-01-28T06:04:35;10.30;;;2.57;;
6834;SDS011;3455;42.150;24.734;2023-01-28T06:07:03;2.57;;;2.47;;
6834;SDS011;3455;42.150;24.734;2023-01-28T06:09:30;3.57;;;3.27;;
6834;SDS011;3455;42.150;24.734;2023-01-28T06:11:56;3.23;;;3.03;;
6834;SDS011;3455;42.150;24.734;2023-01-28T06:14:23;3.57;;;3.27;;
6834;SDS011;3455;42.150;24.734;2023-01-28T06:16:50;3.50;;;3.20;;
6834;SDS011;3455;42.150;24.734;2023-01-28T06:19:17;3.00;;;2.70;;
6834;SDS011;3455;42.150;24.734;2023-01-28T06:21:43;4.10;;;3.60;;
6834;SDS011;3455;42.150;24.734;2023-01-28T06:24:11;3.57;;;2.83;;
6834;SDS011;3455;42.150;24.734;2023-01-28T06:26:38;2.80;;;2.60;;
6834;SDS011;3455;42.150;24.734;2023-01-28T06:29:05;2.83;;;2.10;;
6834;SDS011;3455;42.150;24.734;2023-01-28T06:31:32;2.83;;;2.63;;
6834;SDS011;3455;42.150;24.734;2023-01-28T06:33:59;2.73;;;2.47;;
6834;SDS011;3455;42.150;24.734;2023-01-28T06:36:25;2.20;;;2.10;;
6834;SDS011;3455;42.150;24.734;2023-01-28T06:38:52;2.30;;;2.20;;
6834;SDS011;3455;42.150;24.734;2023-01-28T06:41:20;2.33;;;2.23;;
6834;SDS011;3455;42.150;24.734;2023-01-28T06:43:47;2.77;;;2.33;;
6834;SDS011;3455;42.150;24.734;2023-01-28T06:46:14;4.00;;;2.20;;
6834;SDS011;3455;42.150;24.734;2023-01-28T06:48:40;5.23;;;2.77;;
6834;SDS011;3455;42.150;24.734;2023-01-28T06:51:07;5.10;;;2.90;;
6834;SDS011;3455;42.150;24.734;2023-01-28T06:53:34;2.13;;;2.03;;
6834;SDS011;3455;42.150;24.734;2023-01-28T06:56:00;2.60;;;2.40;;
6834;SDS011;3455;42.150;24.734;2023-01-28T06:58:28;3.03;;;2.43;;
6834;SDS011;3455;42.150;24.734;2023-01-28T07:00:55;3.97;;;2.10;;
6834;SDS011;3455;42.150;24.734;2023-01-28T07:03:22;2.60;;;2.50;;
6834;SDS011;3455;42.150;24.734;2023-01-28T07:05:49;2.93;;;2.73;;
6834;SDS011;3455;42.150;24.734;2023-01-28T07:08:15;5.83;;;2.70;;
6834;SDS011;3455;42.150;24.734;2023-01-28T07:10:42;3.73;;;2.77;;
6834;SDS011;3455;42.150;24.734;2023-01-28T07:13:09;2.70;;;2.53;;
6834;SDS011;3455;42.150;24.734;2023-01-28T07:15:37;5.50;;;2.70;;
6834;SDS011;3455;42.150;24.734;2023-01-28T07:18:04;4.93;;;2.73;;
6834;SDS011;3455;42.150;24.734;2023-01-28T07:20:31;3.70;;;3.07;;
6834;SDS011;3455;42.150;24.734;2023-01-28T07:22:57;3.83;;;2.90;;
6834;SDS011;3455;42.150;24.734;2023-01-28T07:25:24;4.10;;;3.20;;
6834;SDS011;3455;42.150;24.734;2023-01-28T07:27:52;3.57;;;3.37;;
6834;SDS011;3455;42.150;24.734;2023-01-28T07:30:19;6.40;;;2.80;;
6834;SDS011;3455;42.150;24.734;2023-01-28T07:32:52;2.93;;;2.50;;
6834;SDS011;3455;42.150;24.734;2023-01-28T07:35:19;3.43;;;3.13;;
6834;SDS011;3455;42.150;24.734;2023-01-28T07:37:49;2.97;;;2.77;;
6834;SDS011;3455;42.150;24.734;2023-01-28T07:40:17;3.33;;;2.57;;
6834;SDS011;3455;42.150;24.734;2023-01-28T07:42:44;2.57;;;2.37;;
6834;SDS011;3455;42.150;24.734;2023-01-28T07:45:11;3.60;;;3.03;;
6834;SDS011;3455;42.150;24.734;2023-01-28T07:47:38;3.47;;;3.20;;
6834;SDS011;3455;42.150;24.734;2023-01-28T07:50:06;5.43;;;2.93;;
6834;SDS011;3455;42.150;24.734;2023-01-28T07:52:35;4.37;;;3.00;;
6834;SDS011;3455;42.150;24.734;2023-01-28T07:55:08;4.50;;;2.93;;
6834;SDS011;3455;42.150;24.734;2023-01-28T07:57:35;3.70;;;2.70;;
6834;SDS011;3455;42.150;24.734;2023-01-28T08:00:02;3.23;;;2.87;;
6834;SDS011;3455;42.150;24.734;2023-01-28T08:02:29;3.00;;;2.90;;
6834;SDS011;3455;42.150;24.734;2023-01-28T08:04:56;4.53;;;2.67;;
6834;SDS011;3455;42.150;24.734;2023-01-28T08:07:27;2.40;;;2.30;;
6834;SDS011;3455;42.150;24.734;2023-01-28T08:09:54;3.27;;;2.40;;
6834;SDS011;3455;42.150;24.734;2023-01-28T08:12:21;3.57;;;2.60;;
6834;SDS011;3455;42.150;24.734;2023-01-28T08:14:48;4.20;;;2.77;;
6834;SDS011;3455;42.150;24.734;2023-01-28T08:17:15;3.00;;;2.70;;
6834;SDS011;3455;42.150;24.734;2023-01-28T08:19:41;3.00;;;2.77;;
6834;SDS011;3455;42.150;24.734;2023-01-28T08:22:08;2.47;;;2.37;;
6834;SDS011;3455;42.150;24.734;2023-01-28T08:24:36;3.37;;;2.97;;
6834;SDS011;3455;42.150;24.734;2023-01-28T08:27:03;3.92;;;2.70;;
6834;SDS011;3455;42.150;24.734;2023-01-28T08:29:31;5.47;;;2.88;;
6834;SDS011;3455;42.150;24.734;2023-01-28T08:31:57;2.13;;;2.03;;
6834;SDS011;3455;42.150;24.734;2023-01-28T08:34:24;3.47;;;2.22;;
6834;SDS011;3455;42.150;24.734;2023-01-28T08:36:51;2.78;;;2.65;;
6834;SDS011;3455;42.150;24.734;2023-01-28T08:39:19;1.97;;;1.80;;
6834;SDS011;3455;42.150;24.734;2023-01-28T08:41:47;2.20;;;2.07;;
6834;SDS011;3455;42.150;24.734;2023-01-28T08:44:14;2.40;;;2.30;;
6834;SDS011;3455;42.150;24.734;2023-01-28T08:46:41;4.30;;;2.53;;
6834;SDS011;3455;42.150;24.734;2023-01-28T08:49:08;2.65;;;2.47;;
6834;SDS011;3455;42.150;24.734;2023-01-28T08:51:35;1.73;;;1.63;;
6834;SDS011;3455;42.150;24.734;2023-01-28T08:54:02;3.38;;;2.13;;
6834;SDS011;3455;42.150;24.734;2023-01-28T08:56:29;3.58;;;2.03;;
6834;SDS011;3455;42.150;24.734;2023-01-28T08:58:57;3.45;;;2.00;;
6834;SDS011;3455;42.150;24.734;2023-01-28T09:01:23;2.33;;;2.22;;
6834;SDS011;3455;42.150;24.734;2023-01-28T09:03:53;4.32;;;2.25;;
6834;SDS011;3455;42.150;24.734;2023-01-28T09:06:20;3.60;;;2.40;;
6834;SDS011;3455;42.150;24.734;2023-01-28T09:08:47;2.25;;;1.90;;
6834;SDS011;3455;42.150;24.734;2023-01-28T09:11:14;1.90;;;1.80;;
6834;SDS011;3455;42.150;24.734;2023-01-28T09:13:41;2.30;;;1.90;;
6834;SDS011;3455;42.150;24.734;2023-01-28T09:16:09;2.17;;;2.08;;
6834;SDS011;3455;42.150;24.734;2023-01-28T09:18:36;2.45;;;1.98;;
6834;SDS011;3455;42.150;24.734;2023-01-28T09:21:03;2.10;;;2.00;;
6834;SDS011;3455;42.150;24.734;2023-01-28T09:23:32;2.40;;;2.30;;
6834;SDS011;3455;42.150;24.734;2023-01-28T09:26:00;10.23;;;2.17;;
6834;SDS011;3455;42.150;24.734;2023-01-28T09:28:27;2.20;;;2.10;;
6834;SDS011;3455;42.150;24.734;2023-01-28T09:30:59;2.27;;;2.17;;
6834;SDS011;3455;42.150;24.734;2023-01-28T09:33:28;1.80;;;1.70;;
6834;SDS011;3455;42.150;24.734;2023-01-28T09:35:54;3.97;;;3.67;;
6834;SDS011;3455;42.150;24.734;2023-01-28T09:38:21;1.93;;;1.83;;
6834;SDS011;3455;42.150;24.734;2023-01-28T09:40:48;2.60;;;2.30;;
6834;SDS011;3455;42.150;24.734;2023-01-28T09:43:20;2.37;;;2.27;;
6834;SDS011;3455;42.150;24.734;2023-01-28T09:46:12;1.93;;;1.83;;
6834;SDS011;3455;42.150;24.734;2023-01-28T09:48:45;2.50;;;2.40;;
6834;SDS011;3455;42.150;24.734;2023-01-28T09:51:18;2.07;;;1.97;;
6834;SDS011;3455;42.150;24.734;2023-01-28T09:53:54;2.60;;;2.50;;
6834;SDS011;3455;42.150;24.734;2023-01-28T09:56:24;2.50;;;2.20;;
6834;SDS011;3455;42.150;24.734;2023-01-28T09:58:55;2.43;;;2.07;;
6834;SDS011;3455;42.150;24.734;2023-01-28T10:01:29;2.47;;;1.90;;
6834;SDS011;3455;42.150;24.734;2023-01-28T10:04:08;2.63;;;1.77;;
6834;SDS011;3455;42.150;24.734;2023-01-28T10:06:49;5.87;;;2.27;;
6834;SDS011;3455;42.150;24.734;2023-01-28T10:09:27;2.90;;;1.67;;
6834;SDS011;3455;42.150;24.734;2023-01-28T10:12:04;6.13;;;2.00;;
6834;SDS011;3455;42.150;24.734;2023-01-28T10:14:48;1.87;;;1.77;;
6834;SDS011;3455;42.150;24.734;2023-01-28T10:17:24;2.57;;;1.60;;
6834;SDS011;3455;42.150;24.734;2023-01-28T10:19:56;2.10;;;2.00;;
6834;SDS011;3455;42.150;24.734;2023-01-28T10:22:28;3.67;;;2.33;;
6834;SDS011;3455;42.150;24.734;2023-01-28T10:24:58;2.47;;;2.27;;
6834;SDS011;3455;42.150;24.734;2023-01-28T10:27:30;2.13;;;2.03;;
6834;SDS011;3455;42.150;24.734;2023-01-28T10:29:59;2.17;;;2.00;;
6834;SDS011;3455;42.150;24.734;2023-01-28T10:32:43;2.07;;;1.97;;
6834;SDS011;3455;42.150;24.734;2023-01-28T10:35:16;4.30;;;2.37;;
6834;SDS011;3455;42.150;24.734;2023-01-28T10:37:43;1.93;;;1.83;;
6834;SDS011;3455;42.150;24.734;2023-01-28T10:40:11;2.43;;;2.20;;
6834;SDS011;3455;42.150;24.734;2023-01-28T10:42:40;2.23;;;2.00;;
6834;SDS011;3455;42.150;24.734;2023-01-28T10:45:08;1.90;;;1.80;;
6834;SDS011;3455;42.150;24.734;2023-01-28T10:47:43;2.30;;;1.83;;
6834;SDS011;3455;42.150;24.734;2023-01-28T10:50:16;2.00;;;1.90;;
6834;SDS011;3455;42.150;24.734;2023-01-28T10:52:54;2.60;;;2.40;;
6834;SDS011;3455;42.150;24.734;2023-01-28T10:55:21;3.23;;;2.10;;
6834;SDS011;3455;42.150;24.734;2023-01-28T10:57:49;2.60;;;2.40;;
6834;SDS011;3455;42.150;24.734;2023-01-28T11:00:23;4.67;;;2.70;;
6834;SDS011;3455;42.150;24.734;2023-01-28T11:02:52;2.37;;;1.83;;
6834;SDS011;3455;42.150;24.734;2023-01-28T11:05:21;12.80;;;2.60;;
6834;SDS011;3455;42.150;24.734;2023-01-28T11:08:01;6.50;;;2.70;;
6834;SDS011;3455;42.150;24.734;2023-01-28T11:10:30;2.30;;;1.87;;
6834;SDS011;3455;42.150;24.734;2023-01-28T11:12:59;2.50;;;2.30;;
6834;SDS011;3455;42.150;24.734;2023-01-28T11:15:27;5.30;;;2.97;;
6834;SDS011;3455;42.150;24.734;2023-01-28T11:17:55;2.63;;;2.53;;
6834;SDS011;3455;42.150;24.734;2023-01-28T11:20:25;2.80;;;2.60;;
6834;SDS011;3455;42.150;24.734;2023-01-28T11:22:54;2.53;;;2.20;;
6834;SDS011;3455;42.150;24.734;2023-01-28T11:25:25;1.87;;;1.77;;
6834;SDS011;3455;42.150;24.734;2023-01-28T11:27:55;2.80;;;2.70;;
6834;SDS011;3455;42.150;24.734;2023-01-28T11:30:24;3.57;;;2.07;;
6834;SDS011;3455;42.150;24.734;2023-01-28T11:32:56;2.47;;;2.33;;
6834;SDS011;3455;42.150;24.734;2023-01-28T11:35:26;2.50;;;2.28;;
6834;SDS011;3455;42.150;24.734;2023-01-28T11:37:56;3.05;;;2.95;;
6834;SDS011;3455;42.150;24.734;2023-01-28T11:40:23;2.67;;;2.08;;
6834;SDS011;3455;42.150;24.734;2023-01-28T11:42:51;3.10;;;2.90;;
6834;SDS011;3455;42.150;24.734;2023-01-28T11:45:22;3.33;;;3.03;;
6834;SDS011;3455;42.150;24.734;2023-01-28T11:48:00;3.33;;;3.13;;
6834;SDS011;3455;42.150;24.734;2023-01-28T11:50:38;5.07;;;3.00;;
6834;SDS011;3455;42.150;24.734;2023-01-28T11:53:25;3.70;;;3.50;;
6834;SDS011;3455;42.150;24.734;2023-01-28T11:56:24;3.80;;;3.00;;
6834;SDS011;3455;42.150;24.734;2023-01-28T11:59:03;3.20;;;3.07;;
6834;SDS011;3455;42.150;24.734;2023-01-28T12:01:44;2.93;;;2.70;;
6834;SDS011;3455;42.150;24.734;2023-01-28T12:04:22;5.00;;;3.10;;
6834;SDS011;3455;42.150;24.734;2023-01-28T12:07:04;3.03;;;2.90;;
6834;SDS011;3455;42.150;24.734;2023-01-28T12:09:43;4.57;;;2.70;;
6834;SDS011;3455;42.150;24.734;2023-01-28T12:12:22;2.80;;;2.70;;
6834;SDS011;3455;42.150;24.734;2023-01-28T12:18:28;6.37;;;2.90;;
6834;SDS011;3455;42.150;24.734;2023-01-28T12:21:03;3.03;;;2.67;;
6834;SDS011;3455;42.150;24.734;2023-01-28T12:23:36;6.00;;;3.73;;
6834;SDS011;3455;42.150;24.734;2023-01-28T12:26:15;3.17;;;2.97;;
6834;SDS011;3455;42.150;24.734;2023-01-28T12:28:56;4.00;;;3.70;;
6834;SDS011;3455;42.150;24.734;2023-01-28T12:31:36;3.80;;;3.60;;
6834;SDS011;3455;42.150;24.734;2023-01-28T12:34:31;3.83;;;3.53;;
6834;SDS011;3455;42.150;24.734;2023-01-28T12:37:15;8.70;;;3.63;;
6834;SDS011;3455;42.150;24.734;2023-01-28T12:39:54;3.90;;;3.70;;
6834;SDS011;3455;42.150;24.734;2023-01-28T12:42:40;3.07;;;2.97;;
6834;SDS011;3455;42.150;24.734;2023-01-28T12:45:12;3.77;;;3.47;;
6834;SDS011;3455;42.150;24.734;2023-01-28T12:47:44;3.47;;;3.27;;
6834;SDS011;3455;42.150;24.734;2023-01-28T12:50:17;4.03;;;3.60;;
6834;SDS011;3455;42.150;24.734;2023-01-28T12:52:46;4.23;;;3.93;;
6834;SDS011;3455;42.150;24.734;2023-01-28T12:55:21;3.50;;;3.30;;
6834;SDS011;3455;42.150;24.734;2023-01-28T12:58:00;3.70;;;3.50;;
6834;SDS011;3455;42.150;24.734;2023-01-28T13:00:31;6.10;;;4.33;;
6834;SDS011;3455;42.150;24.734;2023-01-28T13:03:01;3.60;;;3.40;;
6834;SDS011;3455;42.150;24.734;2023-01-28T13:05:37;4.10;;;3.90;;
6834;SDS011;3455;42.150;24.734;2023-01-28T13:08:09;7.13;;;4.20;;
6834;SDS011;3455;42.150;24.734;2023-01-28T13:10:42;4.57;;;4.27;;
6834;SDS011;3455;42.150;24.734;2023-01-28T13:13:12;4.00;;;3.70;;
6834;SDS011;3455;42.150;24.734;2023-01-28T13:15:42;3.67;;;3.47;;
6834;SDS011;3455;42.150;24.734;2023-01-28T13:20:57;4.27;;;3.97;;
6834;SDS011;3455;42.150;24.734;2023-01-28T13:23:25;6.13;;;3.50;;
6834;SDS011;3455;42.150;24.734;2023-01-28T13:26:09;4.43;;;4.03;;
6834;SDS011;3455;42.150;24.734;2023-01-28T13:28:52;4.57;;;4.27;;
6834;SDS011;3455;42.150;24.734;2023-01-28T13:31:20;4.40;;;4.10;;
6834;SDS011;3455;42.150;24.734;2023-01-28T13:33:59;5.77;;;4.10;;
6834;SDS011;3455;42.150;24.734;2023-01-28T13:36:28;6.50;;;3.90;;
6834;SDS011;3455;42.150;24.734;2023-01-28T13:39:00;4.10;;;3.80;;
6834;SDS011;3455;42.150;24.734;2023-01-28T13:41:38;5.87;;;4.47;;
6834;SDS011;3455;42.150;24.734;2023-01-28T13:44:16;4.67;;;4.27;;
6834;SDS011;3455;42.150;24.734;2023-01-28T13:46:43;7.83;;;4.27;;
6834;SDS011;3455;42.150;24.734;2023-01-28T13:49:11;5.90;;;5.30;;
6834;SDS011;3455;42.150;24.734;2023-01-28T13:51:44;6.43;;;4.17;;
6834;SDS011;3455;42.150;24.734;2023-01-28T13:54:20;4.67;;;4.37;;
6834;SDS011;3455;42.150;24.734;2023-01-28T13:56:54;5.70;;;5.20;;
6834;SDS011;3455;42.150;24.734;2023-01-28T13:59:36;5.37;;;4.97;;
6834;SDS011;3455;42.150;24.734;2023-01-28T14:02:19;6.80;;;5.27;;
6834;SDS011;3455;42.150;24.734;2023-01-28T14:11:13;5.17;;;4.67;;
6834;SDS011;3455;42.150;24.734;2023-01-28T14:14:10;4.67;;;4.37;;
6834;SDS011;3455;42.150;24.734;2023-01-28T14:16:54;5.67;;;5.27;;
6834;SDS011;3455;42.150;24.734;2023-01-28T14:19:25;4.50;;;4.20;;
6834;SDS011;3455;42.150;24.734;2023-01-28T14:21:54;4.60;;;4.20;;
6834;SDS011;3455;42.150;24.734;2023-01-28T14:24:21;4.77;;;4.47;;
6834;SDS011;3455;42.150;24.734;2023-01-28T14:26:51;4.53;;;4.27;;
6834;SDS011;3455;42.150;24.734;2023-01-28T14:29:29;5.30;;;4.90;;
6834;SDS011;3455;42.150;24.734;2023-01-28T14:32:10;5.20;;;4.70;;
6834;SDS011;3455;42.150;24.734;2023-01-28T14:34:40;6.23;;;5.83;;
6834;SDS011;3455;42.150;24.734;2023-01-28T14:37:08;5.70;;;5.30;;
6834;SDS011;3455;42.150;24.734;2023-01-28T14:39:40;6.63;;;6.03;;
6834;SDS011;3455;42.150;24.734;2023-01-28T14:42:12;5.63;;;5.23;;
6834;SDS011;3455;42.150;24.734;2023-01-28T14:44:45;5.57;;;5.27;;
6834;SDS011;3455;42.150;24.734;2023-01-28T14:47:27;5.07;;;4.77;;
6834;SDS011;3455;42.150;24.734;2023-01-28T14:50:08;5.50;;;5.10;;
6834;SDS011;3455;42.150;24.734;2023-01-28T14:52:51;5.77;;;5.37;;
6834;SDS011;3455;42.150;24.734;2023-01-28T14:55:30;6.70;;;5.40;;
6834;SDS011;3455;42.150;24.734;2023-01-28T14:58:08;4.87;;;4.57;;
6834;SDS011;3455;42.150;24.734;2023-01-28T15:00:51;5.17;;;4.87;;
6834;SDS011;3455;42.150;24.734;2023-01-28T15:03:19;4.73;;;4.43;;
6834;SDS011;3455;42.150;24.734;2023-01-28T15:05:46;4.63;;;4.33;;
6834;SDS011;3455;42.150;24.734;2023-01-28T15:08:19;5.60;;;5.10;;
6834;SDS011;3455;42.150;24.734;2023-01-28T15:10:46;5.63;;;5.23;;
6834;SDS011;3455;42.150;24.734;2023-01-28T15:13:15;5.97;;;5.57;;
6834;SDS011;3455;42.150;24.734;2023-01-28T15:15:51;9.47;;;6.20;;
6834;SDS011;3455;42.150;24.734;2023-01-28T15:18:24;6.70;;;6.07;;
6834;SDS011;3455;42.150;24.734;2023-01-28T15:20:55;9.93;;;6.50;;
6834;SDS011;3455;42.150;24.734;2023-01-28T15:23:24;6.97;;;6.47;;
6834;SDS011;3455;42.150;24.734;2023-01-28T15:25:54;9.77;;;8.17;;
6834;SDS011;3455;42.150;24.734;2023-01-28T15:28:23;7.17;;;6.53;;
6834;SDS011;3455;42.150;24.734;2023-01-28T15:30:54;8.23;;;7.53;;
6834;SDS011;3455;42.150;24.734;2023-01-28T15:33:21;7.97;;;7.30;;
6834;SDS011;3455;42.150;24.734;2023-01-28T15:35:50;8.03;;;7.47;;